sensor_id;sensor_type;location;lat;lon;timestamp;pressure;altitude;pressure_sealevel;temperature;humidity
72636;BME280;60679;48.888;15.544;2023-04-30T00:02:07;96308.03;;;9.30;63.55
72636;BME280;60679;48.888;15.544;2023-04-30T00:04:32;96301.41;;;9.33;63.39
72636;BME280;60679;48.888;15.544;2023-04-30T00:06:58;96305.94;;;9.32;63.58
72636;BME280;60679;48.888;15.544;2023-04-30T00:09:23;96303.25;;;9.32;63.69
72636;BME280;60679;48.888;15.544;2023-04-30T00:11:49;96305.75;;;9.34;63.60
72636;BME280;60679;48.888;15.544;2023-04-30T00:14:14;96301.19;;;9.34;63.63
72636;BME280;60679;48.888;15.544;2023-04-30T00:16:40;96300.56;;;9.32;63.62
72636;BME280;60679;48.888;15.544;2023-04-30T00:19:05;96294.78;;;9.28;63.68
72636;BME280;60679;48.888;15.544;2023-04-30T00:21:31;96303.69;;;9.29;63.93
72636;BME280;60679;48.888;15.544;2023-04-30T00:23:57;96305.34;;;9.30;63.63
72636;BME280;60679;48.888;15.544;2023-04-30T00:26:24;96302.44;;;9.32;63.71
72636;BME280;60679;48.888;15.544;2023-04-30T00:28:49;96304.69;;;9.35;63.97
72636;BME280;60679;48.888;15.544;2023-04-30T00:31:15;96305.31;;;9.37;63.85
72636;BME280;60679;48.888;15.544;2023-04-30T00:33:40;96307.78;;;9.38;63.84
72636;BME280;60679;48.888;15.544;2023-04-30T00:36:05;96302.41;;;9.38;63.97
72636;BME280;60679;48.888;15.544;2023-04-30T00:38:31;96301.38;;;9.39;64.00
72636;BME280;60679;48.888;15.544;2023-04-30T00:40:56;96311.31;;;9.39;64.16
72636;BME280;60679;48.888;15.544;2023-04-30T00:43:22;96303.25;;;9.39;64.11
72636;BME280;60679;48.888;15.544;2023-04-30T00:45:47;96295.75;;;9.41;64.10
72636;BME280;60679;48.888;15.544;2023-04-30T00:48:13;96301.38;;;9.39;64.35
72636;BME280;60679;48.888;15.544;2023-04-30T00:50:40;96300.75;;;9.37;64.24
72636;BME280;60679;48.888;15.544;2023-04-30T00:53:05;96295.81;;;9.34;64.33
72636;BME280;60679;48.888;15.544;2023-04-30T00:55:31;96295.44;;;9.24;64.29
72636;BME280;60679;48.888;15.544;2023-04-30T00:57:57;96302.31;;;9.13;64.48
72636;BME280;60679;48.888;15.544;2023-04-30T01:00:24;96311.25;;;9.01;64.80
72636;BME280;60679;48.888;15.544;2023-04-30T01:02:49;96311.31;;;8.94;65.07
72636;BME280;60679;48.888;15.544;2023-04-30T01:05:14;96308.63;;;8.88;64.64
72636;BME280;60679;48.888;15.544;2023-04-30T01:07:40;96311.38;;;8.68;64.80
72636;BME280;60679;48.888;15.544;2023-04-30T01:10:10;96314.53;;;8.45;65.20
72636;BME280;60679;48.888;15.544;2023-04-30T01:13:02;96316.81;;;8.29;65.46
72636;BME280;60679;48.888;15.544;2023-04-30T01:16:07;96317.41;;;8.18;65.32
72636;BME280;60679;48.888;15.544;2023-04-30T01:18:44;96321.97;;;8.04;65.48
72636;BME280;60679;48.888;15.544;2023-04-30T01:21:14;96320.94;;;7.98;65.52
72636;BME280;60679;48.888;15.544;2023-04-30T01:26:58;96322.78;;;7.91;65.74
72636;BME280;60679;48.888;15.544;2023-04-30T01:29:25;96321.34;;;7.95;65.76
72636;BME280;60679;48.888;15.544;2023-04-30T01:31:51;96319.06;;;7.99;65.63
72636;BME280;60679;48.888;15.544;2023-04-30T01:34:16;96322.38;;;8.07;65.64
72636;BME280;60679;48.888;15.544;2023-04-30T01:42:21;96327.13;;;7.86;66.08
72636;BME280;60679;48.888;15.544;2023-04-30T01:52:59;96325.81;;;7.49;66.54
72636;BME280;60679;48.888;15.544;2023-04-30T01:55:36;96328.06;;;7.45;66.49
72636;BME280;60679;48.888;15.544;2023-04-30T01:58:06;96333.03;;;7.42;66.68
72636;BME280;60679;48.888;15.544;2023-04-30T02:00:33;96336.97;;;7.39;66.61
72636;BME280;60679;48.888;15.544;2023-04-30T02:02:59;96337.97;;;7.38;66.68
72636;BME280;60679;48.888;15.544;2023-04-30T02:05:24;96341.09;;;7.42;66.69
72636;BME280;60679;48.888;15.544;2023-04-30T02:07:50;96338.16;;;7.37;66.77
72636;BME280;60679;48.888;15.544;2023-04-30T02:10:19;96342.50;;;7.31;66.78
72636;BME280;60679;48.888;15.544;2023-04-30T02:12:45;96347.47;;;7.28;66.85
72636;BME280;60679;48.888;15.544;2023-04-30T02:15:11;96352.84;;;7.28;66.85
72636;BME280;60679;48.888;15.544;2023-04-30T02:17:36;96351.78;;;7.29;66.89
72636;BME280;60679;48.888;15.544;2023-04-30T02:20:02;96359.00;;;7.28;67.19
72636;BME280;60679;48.888;15.544;2023-04-30T02:22:27;96358.78;;;7.23;67.00
72636;BME280;60679;48.888;15.544;2023-04-30T02:24:53;96363.53;;;7.21;67.13
72636;BME280;60679;48.888;15.544;2023-04-30T02:27:22;96356.09;;;7.23;67.19
72636;BME280;60679;48.888;15.544;2023-04-30T02:29:48;96360.66;;;7.29;67.10
72636;BME280;60679;48.888;15.544;2023-04-30T02:32:13;96354.50;;;7.35;67.22
72636;BME280;60679;48.888;15.544;2023-04-30T02:34:39;96354.94;;;7.45;67.11
72636;BME280;60679;48.888;15.544;2023-04-30T02:37:05;96365.91;;;7.57;67.37
72636;BME280;60679;48.888;15.544;2023-04-30T02:39:31;96356.25;;;7.69;67.04
72636;BME280;60679;48.888;15.544;2023-04-30T02:41:56;96359.16;;;7.81;67.02
72636;BME280;60679;48.888;15.544;2023-04-30T02:44:22;96354.22;;;7.91;67.25
72636;BME280;60679;48.888;15.544;2023-04-30T02:46:47;96362.91;;;7.99;67.21
72636;BME280;60679;48.888;15.544;2023-04-30T02:49:12;96367.91;;;8.09;67.06
72636;BME280;60679;48.888;15.544;2023-04-30T02:51:43;96357.75;;;8.18;67.33
72636;BME280;60679;48.888;15.544;2023-04-30T02:54:08;96366.66;;;8.25;67.26
72636;BME280;60679;48.888;15.544;2023-04-30T02:56:34;96373.09;;;8.30;67.41
72636;BME280;60679;48.888;15.544;2023-04-30T02:58:59;96370.81;;;8.34;67.15
72636;BME280;60679;48.888;15.544;2023-04-30T03:01:25;96372.50;;;8.35;67.42
72636;BME280;60679;48.888;15.544;2023-04-30T03:03:51;96368.34;;;8.39;67.54
72636;BME280;60679;48.888;15.544;2023-04-30T03:06:16;96368.97;;;8.41;67.40
72636;BME280;60679;48.888;15.544;2023-04-30T03:08:41;96359.66;;;8.43;67.19
72636;BME280;60679;48.888;15.544;2023-04-30T03:11:07;96368.56;;;8.44;67.47
72636;BME280;60679;48.888;15.544;2023-04-30T03:13:32;96378.88;;;8.47;67.28
72636;BME280;60679;48.888;15.544;2023-04-30T03:15:58;96377.84;;;8.48;67.50
72636;BME280;60679;48.888;15.544;2023-04-30T03:18:25;96374.13;;;8.49;67.51
72636;BME280;60679;48.888;15.544;2023-04-30T03:20:51;96375.78;;;8.50;67.73
72636;BME280;60679;48.888;15.544;2023-04-30T03:23:16;96390.91;;;8.51;67.54
72636;BME280;60679;48.888;15.544;2023-04-30T03:25:41;96382.81;;;8.51;67.54
72636;BME280;60679;48.888;15.544;2023-04-30T03:28:07;96390.06;;;8.50;67.53
72636;BME280;60679;48.888;15.544;2023-04-30T03:30:32;96388.22;;;8.51;67.56
72636;BME280;60679;48.888;15.544;2023-04-30T03:32:57;96393.38;;;8.52;67.89
72636;BME280;60679;48.888;15.544;2023-04-30T03:35:23;96388.81;;;8.53;67.95
72636;BME280;60679;48.888;15.544;2023-04-30T03:37:48;96390.69;;;8.52;67.76
72636;BME280;60679;48.888;15.544;2023-04-30T03:40:13;96389.66;;;8.53;67.79
72636;BME280;60679;48.888;15.544;2023-04-30T03:42:39;96394.19;;;8.53;67.64
72636;BME280;60679;48.888;15.544;2023-04-30T03:45:04;96394.19;;;8.53;67.84
72636;BME280;60679;48.888;15.544;2023-04-30T03:47:30;96395.03;;;8.53;67.75
72636;BME280;60679;48.888;15.544;2023-04-30T03:49:55;96391.50;;;8.53;67.89
72636;BME280;60679;48.888;15.544;2023-04-30T03:52:21;96398.75;;;8.52;67.84
72636;BME280;60679;48.888;15.544;2023-04-30T03:54:46;96397.53;;;8.55;67.97
72636;BME280;60679;48.888;15.544;2023-04-30T03:57:12;96400.22;;;8.55;67.76
72636;BME280;60679;48.888;15.544;2023-04-30T03:59:38;96396.47;;;8.56;68.12
72636;BME280;60679;48.888;15.544;2023-04-30T04:02:04;96404.56;;;8.56;67.91
72636;BME280;60679;48.888;15.544;2023-04-30T04:04:31;96407.66;;;8.59;68.02
72636;BME280;60679;48.888;15.544;2023-04-30T04:06:57;96405.41;;;8.63;67.85
72636;BME280;60679;48.888;15.544;2023-04-30T04:09:23;96410.38;;;8.66;67.79
72636;BME280;60679;48.888;15.544;2023-04-30T04:11:48;96409.72;;;8.70;68.25
72636;BME280;60679;48.888;15.544;2023-04-30T04:14:13;96420.31;;;8.72;67.89
72636;BME280;60679;48.888;15.544;2023-04-30T04:16:39;96425.47;;;8.74;67.88
72636;BME280;60679;48.888;15.544;2023-04-30T04:19:04;96424.44;;;8.75;67.77
72636;BME280;60679;48.888;15.544;2023-04-30T04:21:30;96416.75;;;8.78;67.89
72636;BME280;60679;48.888;15.544;2023-04-30T04:23:56;96421.53;;;8.83;67.66
72636;BME280;60679;48.888;15.544;2023-04-30T04:26:21;96422.97;;;8.85;67.73
72636;BME280;60679;48.888;15.544;2023-04-30T04:28:50;96432.91;;;8.91;67.55
72636;BME280;60679;48.888;15.544;2023-04-30T04:31:16;96433.28;;;8.95;67.80
72636;BME280;60679;48.888;15.544;2023-04-30T04:33:41;96431.03;;;8.98;67.75
72636;BME280;60679;48.888;15.544;2023-04-30T04:36:06;96433.91;;;9.03;67.66
72636;BME280;60679;48.888;15.544;2023-04-30T04:38:32;96448.41;;;9.09;67.50
72636;BME280;60679;48.888;15.544;2023-04-30T04:40:58;96439.72;;;9.13;67.44
72636;BME280;60679;48.888;15.544;2023-04-30T04:43:23;96441.75;;;9.18;67.56
72636;BME280;60679;48.888;15.544;2023-04-30T04:45:48;96445.09;;;9.20;67.42
72636;BME280;60679;48.888;15.544;2023-04-30T04:48:14;96446.13;;;9.25;67.47
72636;BME280;60679;48.888;15.544;2023-04-30T04:50:39;96441.75;;;9.31;67.38
72636;BME280;60679;48.888;15.544;2023-04-30T04:53:05;96442.53;;;9.38;67.35
72636;BME280;60679;48.888;15.544;2023-04-30T04:55:30;96443.78;;;9.42;67.39
72636;BME280;60679;48.888;15.544;2023-04-30T04:57:56;96443.38;;;9.45;67.24
72636;BME280;60679;48.888;15.544;2023-04-30T05:00:21;96447.28;;;9.49;67.22
72636;BME280;60679;48.888;15.544;2023-04-30T05:02:47;96453.69;;;9.55;67.05
72636;BME280;60679;48.888;15.544;2023-04-30T05:05:13;96449.09;;;9.62;67.04
72636;BME280;60679;48.888;15.544;2023-04-30T05:07:39;96447.44;;;9.67;67.02
72636;BME280;60679;48.888;15.544;2023-04-30T05:10:05;96455.69;;;9.72;67.00
72636;BME280;60679;48.888;15.544;2023-04-30T05:12:31;96458.38;;;9.79;67.08
72636;BME280;60679;48.888;15.544;2023-04-30T05:14:57;96464.81;;;9.78;66.71
72636;BME280;60679;48.888;15.544;2023-04-30T05:17:22;96463.78;;;9.79;66.99
72636;BME280;60679;48.888;15.544;2023-04-30T05:19:48;96461.06;;;9.79;66.93
72636;BME280;60679;48.888;15.544;2023-04-30T05:22:15;96458.38;;;9.79;67.07
72636;BME280;60679;48.888;15.544;2023-04-30T05:24:40;96467.69;;;9.83;66.81
72636;BME280;60679;48.888;15.544;2023-04-30T05:27:06;96461.44;;;9.89;67.00
72636;BME280;60679;48.888;15.544;2023-04-30T05:29:31;96466.41;;;9.92;66.79
72636;BME280;60679;48.888;15.544;2023-04-30T05:31:56;96462.66;;;9.93;66.78
72636;BME280;60679;48.888;15.544;2023-04-30T05:34:22;96465.13;;;9.95;66.80
72636;BME280;60679;48.888;15.544;2023-04-30T05:36:47;96468.25;;;9.98;66.65
72636;BME280;60679;48.888;15.544;2023-04-30T05:39:13;96470.72;;;10.00;66.87
72636;BME280;60679;48.888;15.544;2023-04-30T05:41:38;96475.28;;;9.99;66.88
72636;BME280;60679;48.888;15.544;2023-04-30T05:44:04;96475.91;;;10.01;66.89
72636;BME280;60679;48.888;15.544;2023-04-30T05:46:31;96473.81;;;10.03;66.55
72636;BME280;60679;48.888;15.544;2023-04-30T05:48:56;96470.91;;;10.05;66.99
72636;BME280;60679;48.888;15.544;2023-04-30T05:51:21;96477.16;;;9.99;66.78
72636;BME280;60679;48.888;15.544;2023-04-30T05:53:47;96474.06;;;9.95;66.97
72636;BME280;60679;48.888;15.544;2023-04-30T05:56:12;96472.63;;;9.93;66.98
72636;BME280;60679;48.888;15.544;2023-04-30T05:58:38;96478.84;;;9.93;67.08
72636;BME280;60679;48.888;15.544;2023-04-30T06:01:03;96481.75;;;9.92;66.87
72636;BME280;60679;48.888;15.544;2023-04-30T06:03:29;96487.56;;;9.88;66.81
72636;BME280;60679;48.888;15.544;2023-04-30T06:05:55;96484.69;;;9.90;67.02
72636;BME280;60679;48.888;15.544;2023-04-30T06:08:21;96489.22;;;9.90;67.20
72636;BME280;60679;48.888;15.544;2023-04-30T06:10:46;96491.94;;;9.90;67.14
72636;BME280;60679;48.888;15.544;2023-04-30T06:13:12;96489.00;;;9.91;67.07
72636;BME280;60679;48.888;15.544;2023-04-30T06:15:39;96484.63;;;9.97;67.11
72636;BME280;60679;48.888;15.544;2023-04-30T06:18:05;96487.53;;;10.02;66.90
72636;BME280;60679;48.888;15.544;2023-04-30T06:20:31;96494.38;;;10.04;66.87
72636;BME280;60679;48.888;15.544;2023-04-30T06:22:56;96493.28;;;10.12;66.83
72636;BME280;60679;48.888;15.544;2023-04-30T06:25:22;96498.44;;;10.20;66.52
72636;BME280;60679;48.888;15.544;2023-04-30T06:27:47;96498.59;;;10.31;66.30
72636;BME280;60679;48.888;15.544;2023-04-30T06:30:12;96493.78;;;10.40;66.39
72636;BME280;60679;48.888;15.544;2023-04-30T06:32:38;96492.47;;;10.49;66.20
72636;BME280;60679;48.888;15.544;2023-04-30T06:35:04;96498.66;;;10.56;66.12
72636;BME280;60679;48.888;15.544;2023-04-30T06:37:29;96502.34;;;10.62;65.87
72636;BME280;60679;48.888;15.544;2023-04-30T06:40:00;96502.72;;;10.72;65.80
72636;BME280;60679;48.888;15.544;2023-04-30T06:42:25;96506.69;;;10.94;65.57
72636;BME280;60679;48.888;15.544;2023-04-30T06:44:50;96502.50;;;11.23;65.06
72636;BME280;60679;48.888;15.544;2023-04-30T06:47:16;96497.75;;;11.43;64.55
72636;BME280;60679;48.888;15.544;2023-04-30T06:49:41;96499.41;;;11.62;64.32
72636;BME280;60679;48.888;15.544;2023-04-30T06:52:06;96491.03;;;11.70;64.08
72636;BME280;60679;48.888;15.544;2023-04-30T06:54:32;96504.94;;;11.74;64.19
72636;BME280;60679;48.888;15.544;2023-04-30T06:56:57;96497.19;;;11.77;64.16
72636;BME280;60679;48.888;15.544;2023-04-30T06:59:23;96501.94;;;11.82;63.94
72636;BME280;60679;48.888;15.544;2023-04-30T07:01:48;96501.63;;;11.90;64.08
72636;BME280;60679;48.888;15.544;2023-04-30T07:04:13;96504.03;;;11.98;64.06
72636;BME280;60679;48.888;15.544;2023-04-30T07:06:39;96507.13;;;12.01;63.76
72636;BME280;60679;48.888;15.544;2023-04-30T07:09:04;96507.38;;;12.11;63.63
72636;BME280;60679;48.888;15.544;2023-04-30T07:11:29;96511.50;;;12.32;63.24
72636;BME280;60679;48.888;15.544;2023-04-30T07:13:55;96502.78;;;12.60;62.75
72636;BME280;60679;48.888;15.544;2023-04-30T07:16:21;96509.13;;;12.84;62.33
72636;BME280;60679;48.888;15.544;2023-04-30T07:18:46;96509.66;;;13.15;61.71
72636;BME280;60679;48.888;15.544;2023-04-30T07:21:15;96512.50;;;13.55;61.00
72636;BME280;60679;48.888;15.544;2023-04-30T07:23:40;96510.97;;;13.82;60.35
72636;BME280;60679;48.888;15.544;2023-04-30T07:26:06;96504.91;;;14.15;59.90
72636;BME280;60679;48.888;15.544;2023-04-30T07:28:32;96502.81;;;14.45;59.31
72636;BME280;60679;48.888;15.544;2023-04-30T07:30:57;96504.88;;;14.67;58.99
72636;BME280;60679;48.888;15.544;2023-04-30T07:33:23;96504.50;;;14.91;58.60
72636;BME280;60679;48.888;15.544;2023-04-30T07:35:48;96514.19;;;15.32;57.91
72636;BME280;60679;48.888;15.544;2023-04-30T07:38:14;96504.00;;;15.78;57.31
72636;BME280;60679;48.888;15.544;2023-04-30T07:40:41;96506.97;;;15.93;56.89
72636;BME280;60679;48.888;15.544;2023-04-30T07:43:06;96504.69;;;16.06;57.07
72636;BME280;60679;48.888;15.544;2023-04-30T07:45:32;96508.03;;;15.92;57.31
72636;BME280;60679;48.888;15.544;2023-04-30T07:47:58;96511.03;;;15.74;57.47
72636;BME280;60679;48.888;15.544;2023-04-30T07:50:24;96506.97;;;15.93;57.33
72636;BME280;60679;48.888;15.544;2023-04-30T07:52:49;96512.47;;;15.98;57.58
72636;BME280;60679;48.888;15.544;2023-04-30T07:55:15;96509.91;;;16.08;57.66
72636;BME280;60679;48.888;15.544;2023-04-30T07:57:40;96512.22;;;15.99;57.86
72636;BME280;60679;48.888;15.544;2023-04-30T08:00:06;96510.97;;;16.50;57.02
72636;BME280;60679;48.888;15.544;2023-04-30T08:02:32;96510.38;;;17.18;55.77
72636;BME280;60679;48.888;15.544;2023-04-30T08:04:58;96515.28;;;17.53;55.82
72636;BME280;60679;48.888;15.544;2023-04-30T08:07:23;96512.56;;;17.90;55.04
72636;BME280;60679;48.888;15.544;2023-04-30T08:09:49;96517.16;;;18.88;53.76
72636;BME280;60679;48.888;15.544;2023-04-30T08:12:15;96516.16;;;19.40;52.83
72636;BME280;60679;48.888;15.544;2023-04-30T08:14:41;96516.66;;;19.17;53.26
72636;BME280;60679;48.888;15.544;2023-04-30T08:17:06;96511.72;;;19.03;53.35
72636;BME280;60679;48.888;15.544;2023-04-30T08:19:32;96502.72;;;19.18;52.49
72636;BME280;60679;48.888;15.544;2023-04-30T08:21:57;96507.66;;;19.16;52.64
72636;BME280;60679;48.888;15.544;2023-04-30T08:24:23;96516.81;;;18.13;53.89
72636;BME280;60679;48.888;15.544;2023-04-30T08:26:49;96512.63;;;17.26;55.21
72636;BME280;60679;48.888;15.544;2023-04-30T08:29:14;96519.72;;;17.27;55.70
72636;BME280;60679;48.888;15.544;2023-04-30T08:31:39;96519.75;;;17.59;55.09
72636;BME280;60679;48.888;15.544;2023-04-30T08:34:05;96516.44;;;17.94;54.43
72636;BME280;60679;48.888;15.544;2023-04-30T08:36:30;96507.38;;;18.40;53.21
72636;BME280;60679;48.888;15.544;2023-04-30T08:38:56;96509.78;;;18.32;52.72
72636;BME280;60679;48.888;15.544;2023-04-30T08:41:25;96509.38;;;18.50;52.61
72636;BME280;60679;48.888;15.544;2023-04-30T08:43:52;96498.56;;;20.11;49.91
72636;BME280;60679;48.888;15.544;2023-04-30T08:46:19;96507.09;;;19.85;50.47
72636;BME280;60679;48.888;15.544;2023-04-30T08:48:44;96507.69;;;19.67;50.74
72636;BME280;60679;48.888;15.544;2023-04-30T08:51:12;96514.78;;;19.68;50.47
72636;BME280;60679;48.888;15.544;2023-04-30T08:53:39;96516.47;;;19.64;50.48
72636;BME280;60679;48.888;15.544;2023-04-30T08:56:04;96499.72;;;19.75;50.39
72636;BME280;60679;48.888;15.544;2023-04-30T08:58:30;96513.97;;;19.72;50.41
72636;BME280;60679;48.888;15.544;2023-04-30T09:01:00;96517.81;;;19.71;50.27
72636;BME280;60679;48.888;15.544;2023-04-30T09:03:25;96518.91;;;19.70;50.44
72636;BME280;60679;48.888;15.544;2023-04-30T09:05:53;96525.75;;;19.63;50.81
72636;BME280;60679;48.888;15.544;2023-04-30T09:08:42;96531.19;;;19.27;50.87
72636;BME280;60679;48.888;15.544;2023-04-30T09:11:24;96525.97;;;19.31;51.08
72636;BME280;60679;48.888;15.544;2023-04-30T09:13:51;96527.91;;;19.25;50.90
72636;BME280;60679;48.888;15.544;2023-04-30T09:16:19;96523.53;;;19.29;50.25
72636;BME280;60679;48.888;15.544;2023-04-30T09:18:44;96531.72;;;19.14;50.23
72636;BME280;60679;48.888;15.544;2023-04-30T09:21:11;96532.00;;;19.08;50.18
72636;BME280;60679;48.888;15.544;2023-04-30T09:23:36;96522.41;;;19.10;49.91
72636;BME280;60679;48.888;15.544;2023-04-30T09:26:20;96522.91;;;18.92;50.17
72636;BME280;60679;48.888;15.544;2023-04-30T09:28:55;96527.88;;;19.05;49.72
72636;BME280;60679;48.888;15.544;2023-04-30T09:31:21;96522.13;;;19.17;49.58
72636;BME280;60679;48.888;15.544;2023-04-30T09:33:47;96520.53;;;19.56;48.67
72636;BME280;60679;48.888;15.544;2023-04-30T09:36:12;96519.94;;;20.35;47.62
72636;BME280;60679;48.888;15.544;2023-04-30T09:38:38;96520.75;;;20.40;47.42
72636;BME280;60679;48.888;15.544;2023-04-30T09:41:03;96511.72;;;20.04;47.97
72636;BME280;60679;48.888;15.544;2023-04-30T09:43:29;96519.97;;;19.84;47.66
72636;BME280;60679;48.888;15.544;2023-04-30T09:45:57;96519.09;;;20.19;47.24
72636;BME280;60679;48.888;15.544;2023-04-30T09:48:24;96520.53;;;19.91;47.37
72636;BME280;60679;48.888;15.544;2023-04-30T09:50:51;96521.94;;;19.43;47.91
72636;BME280;60679;48.888;15.544;2023-04-30T09:53:17;96528.06;;;18.78;48.37
72636;BME280;60679;48.888;15.544;2023-04-30T09:55:44;96530.50;;;18.18;49.19
72636;BME280;60679;48.888;15.544;2023-04-30T09:58:11;96524.88;;;17.56;49.75
72636;BME280;60679;48.888;15.544;2023-04-30T10:00:37;96519.00;;;17.10;50.45
72636;BME280;60679;48.888;15.544;2023-04-30T10:03:08;96527.38;;;16.99;50.54
72636;BME280;60679;48.888;15.544;2023-04-30T10:05:40;96529.81;;;17.00;50.04
72636;BME280;60679;48.888;15.544;2023-04-30T10:08:11;96526.06;;;17.06;49.77
72636;BME280;60679;48.888;15.544;2023-04-30T10:10:39;96535.31;;;17.32;49.13
72636;BME280;60679;48.888;15.544;2023-04-30T10:13:09;96529.25;;;17.88;48.12
72636;BME280;60679;48.888;15.544;2023-04-30T10:15:39;96525.44;;;18.41;47.37
72636;BME280;60679;48.888;15.544;2023-04-30T10:18:20;96523.75;;;18.92;46.42
72636;BME280;60679;48.888;15.544;2023-04-30T10:20:47;96523.16;;;18.85;46.58
72636;BME280;60679;48.888;15.544;2023-04-30T10:23:15;96521.81;;;18.88;46.56
72636;BME280;60679;48.888;15.544;2023-04-30T10:25:40;96514.47;;;19.09;46.55
72636;BME280;60679;48.888;15.544;2023-04-30T10:28:08;96503.81;;;19.27;46.04
72636;BME280;60679;48.888;15.544;2023-04-30T10:30:34;96511.50;;;19.50;45.74
72636;BME280;60679;48.888;15.544;2023-04-30T10:35:46;96512.28;;;19.96;45.51
72636;BME280;60679;48.888;15.544;2023-04-30T10:40:45;96502.47;;;19.80;45.93
72636;BME280;60679;48.888;15.544;2023-04-30T10:43:12;96505.47;;;19.74;45.60
72636;BME280;60679;48.888;15.544;2023-04-30T10:45:41;96507.38;;;19.73;45.42
72636;BME280;60679;48.888;15.544;2023-04-30T10:48:08;96504.63;;;19.93;45.03
72636;BME280;60679;48.888;15.544;2023-04-30T10:50:39;96508.22;;;20.78;43.63
72636;BME280;60679;48.888;15.544;2023-04-30T10:53:06;96498.94;;;21.91;42.49
72636;BME280;60679;48.888;15.544;2023-04-30T10:55:31;96495.94;;;23.43;40.31
72636;BME280;60679;48.888;15.544;2023-04-30T10:57:58;96497.59;;;26.42;35.59
72636;BME280;60679;48.888;15.544;2023-04-30T11:00:28;96490.53;;;28.73;33.46
72636;BME280;60679;48.888;15.544;2023-04-30T11:03:01;96489.94;;;31.90;30.28
72636;BME280;60679;48.888;15.544;2023-04-30T11:05:37;96484.00;;;34.56;28.07
72636;BME280;60679;48.888;15.544;2023-04-30T11:08:04;96478.19;;;36.59;26.37
72636;BME280;60679;48.888;15.544;2023-04-30T11:10:34;96470.69;;;39.82;23.87
72636;BME280;60679;48.888;15.544;2023-04-30T11:13:03;96468.00;;;40.51;23.69
72636;BME280;60679;48.888;15.544;2023-04-30T11:15:40;96463.34;;;44.73;20.26
72636;BME280;60679;48.888;15.544;2023-04-30T11:18:07;96459.66;;;40.92;23.73
72636;BME280;60679;48.888;15.544;2023-04-30T11:20:38;96464.88;;;32.80;31.51
72636;BME280;60679;48.888;15.544;2023-04-30T11:23:13;96470.97;;;28.05;35.90
72636;BME280;60679;48.888;15.544;2023-04-30T11:25:44;96465.16;;;28.74;33.67
72636;BME280;60679;48.888;15.544;2023-04-30T11:28:34;96469.63;;;27.94;34.90
72636;BME280;60679;48.888;15.544;2023-04-30T11:31:00;96470.03;;;26.37;36.11
72636;BME280;60679;48.888;15.544;2023-04-30T11:33:30;96469.56;;;26.13;36.08
72636;BME280;60679;48.888;15.544;2023-04-30T11:35:58;96473.81;;;25.66;36.23
72636;BME280;60679;48.888;15.544;2023-04-30T11:38:28;96463.03;;;25.06;35.96
72636;BME280;60679;48.888;15.544;2023-04-30T11:40:56;96470.88;;;25.62;35.13
72636;BME280;60679;48.888;15.544;2023-04-30T11:43:25;96462.22;;;29.50;30.27
72636;BME280;60679;48.888;15.544;2023-04-30T11:46:10;96455.16;;;32.59;27.50
72636;BME280;60679;48.888;15.544;2023-04-30T11:48:38;96454.63;;;33.89;26.78
72636;BME280;60679;48.888;15.544;2023-04-30T11:51:14;96448.28;;;34.75;25.23
72636;BME280;60679;48.888;15.544;2023-04-30T11:53:40;96449.31;;;41.19;20.69
72636;BME280;60679;48.888;15.544;2023-04-30T11:56:06;96457.47;;;44.81;18.07
72636;BME280;60679;48.888;15.544;2023-04-30T11:58:35;96450.44;;;45.82;17.98
72636;BME280;60679;48.888;15.544;2023-04-30T12:01:06;96445.97;;;46.26;17.72
72636;BME280;60679;48.888;15.544;2023-04-30T12:03:43;96446.88;;;47.02;17.33
72636;BME280;60679;48.888;15.544;2023-04-30T12:06:22;96446.56;;;47.72;16.78
72636;BME280;60679;48.888;15.544;2023-04-30T12:08:48;96440.47;;;48.70;15.45
72636;BME280;60679;48.888;15.544;2023-04-30T12:11:26;96444.00;;;49.04;15.23
72636;BME280;60679;48.888;15.544;2023-04-30T12:14:05;96441.31;;;49.10;15.87
72636;BME280;60679;48.888;15.544;2023-04-30T12:16:57;96442.84;;;48.93;15.75
72636;BME280;60679;48.888;15.544;2023-04-30T12:19:24;96437.53;;;50.35;15.30
72636;BME280;60679;48.888;15.544;2023-04-30T12:21:50;96443.41;;;51.09;14.33
72636;BME280;60679;48.888;15.544;2023-04-30T12:24:16;96440.41;;;52.08;14.35
72636;BME280;60679;48.888;15.544;2023-04-30T12:26:42;96434.97;;;52.24;14.04
72636;BME280;60679;48.888;15.544;2023-04-30T12:29:17;96428.50;;;51.91;13.58
72636;BME280;60679;48.888;15.544;2023-04-30T12:31:43;96414.59;;;51.42;13.47
72636;BME280;60679;48.888;15.544;2023-04-30T12:34:11;96419.19;;;51.96;13.49
72636;BME280;60679;48.888;15.544;2023-04-30T12:36:38;96412.41;;;52.37;13.38
72636;BME280;60679;48.888;15.544;2023-04-30T12:39:08;96399.09;;;41.60;20.43
72636;BME280;60679;48.888;15.544;2023-04-30T12:41:41;96408.09;;;33.84;26.25
72636;BME280;60679;48.888;15.544;2023-04-30T12:44:24;96406.63;;;30.52;28.43
72636;BME280;60679;48.888;15.544;2023-04-30T12:46:54;96399.16;;;32.74;25.03
72636;BME280;60679;48.888;15.544;2023-04-30T12:49:29;96393.22;;;43.61;15.70
72636;BME280;60679;48.888;15.544;2023-04-30T12:52:03;96398.81;;;47.57;13.57
72636;BME280;60679;48.888;15.544;2023-04-30T12:54:32;96399.31;;;49.03;13.30
72636;BME280;60679;48.888;15.544;2023-04-30T12:57:06;96399.19;;;49.92;12.64
72636;BME280;60679;48.888;15.544;2023-04-30T12:59:55;96401.44;;;50.75;12.00
72636;BME280;60679;48.888;15.544;2023-04-30T13:02:25;96397.22;;;49.44;12.86
72636;BME280;60679;48.888;15.544;2023-04-30T13:04:51;96398.47;;;51.03;12.44
72636;BME280;60679;48.888;15.544;2023-04-30T13:07:17;96399.94;;;50.98;11.96
72636;BME280;60679;48.888;15.544;2023-04-30T13:09:43;96389.41;;;50.86;11.78
72636;BME280;60679;48.888;15.544;2023-04-30T13:12:08;96392.44;;;51.24;11.84
72636;BME280;60679;48.888;15.544;2023-04-30T13:14:34;96394.13;;;52.70;11.36
72636;BME280;60679;48.888;15.544;2023-04-30T13:17:00;96388.50;;;52.37;11.42
72636;BME280;60679;48.888;15.544;2023-04-30T13:19:29;96381.66;;;52.34;11.14